createdAt,value
2023-03-06T00:00:53.055Z,18.31
2023-03-06T00:04:53.180Z,18.31
2023-03-06T00:08:53.273Z,18.31
2023-03-06T00:12:53.407Z,18.31
2023-03-06T00:16:53.472Z,18.31
2023-03-06T00:20:53.606Z,18.31
2023-03-06T00:24:53.717Z,18.31
2023-03-06T00:28:53.836Z,18.31
2023-03-06T00:32:53.961Z,18.30
2023-03-06T00:36:54.057Z,18.30
2023-03-06T00:40:54.126Z,18.29
2023-03-06T00:44:54.227Z,18.30
2023-03-06T00:48:54.321Z,18.29
2023-03-06T00:52:54.497Z,18.29
2023-03-06T00:56:54.473Z,18.30
2023-03-06T01:00:54.627Z,18.29
2023-03-06T01:04:54.637Z,18.30
2023-03-06T01:08:54.712Z,18.30
2023-03-06T01:12:54.808Z,18.29
2023-03-06T01:16:54.912Z,18.28
2023-03-06T01:20:55.085Z,18.29
2023-03-06T01:24:55.094Z,18.28
2023-03-06T01:28:55.233Z,18.27
2023-03-06T01:32:55.318Z,18.27
2023-03-06T01:36:55.408Z,18.28
2023-03-06T01:40:55.512Z,18.27
2023-03-06T01:44:55.614Z,18.27
2023-03-06T01:48:55.697Z,18.27
2023-03-06T01:52:55.832Z,18.28
2023-03-06T01:56:55.936Z,18.28
2023-03-06T02:00:56.193Z,18.27
2023-03-06T02:04:56.192Z,18.26
2023-03-06T02:08:56.310Z,18.26
2023-03-06T02:12:56.361Z,18.26
2023-03-06T02:16:56.578Z,18.27
2023-03-06T02:20:56.586Z,18.27
2023-03-06T02:24:56.705Z,18.27
2023-03-06T02:28:56.747Z,18.26
2023-03-06T02:32:56.879Z,18.27
2023-03-06T02:36:56.994Z,18.25
2023-03-06T02:40:57.092Z,18.26
2023-03-06T02:44:57.187Z,18.27
2023-03-06T02:48:57.322Z,18.28
2023-03-06T02:52:57.360Z,18.26
2023-03-06T02:56:57.495Z,18.27
2023-03-06T03:00:57.605Z,18.26
2023-03-06T03:04:57.710Z,18.26
2023-03-06T03:08:57.790Z,18.26
2023-03-06T03:12:57.916Z,18.25
2023-03-06T03:16:58.040Z,18.25
2023-03-06T03:20:58.153Z,18.26
2023-03-06T03:24:58.261Z,18.26
2023-03-06T03:28:58.337Z,18.26
2023-03-06T03:32:58.474Z,18.25
2023-03-06T03:36:58.553Z,18.26
2023-03-06T03:40:58.675Z,18.24
2023-03-06T03:44:58.852Z,18.24
2023-03-06T03:48:58.883Z,18.25
2023-03-06T03:52:59.017Z,18.24
2023-03-06T03:56:59.160Z,18.23
2023-03-06T04:00:59.243Z,18.22
2023-03-06T04:04:59.436Z,18.23
2023-03-06T04:08:59.507Z,18.24
2023-03-06T04:12:59.624Z,18.25
2023-03-06T04:16:59.795Z,18.30
2023-03-06T04:20:59.820Z,18.34
2023-03-06T04:24:59.893Z,18.40
2023-03-06T04:28:59.894Z,18.44
2023-03-06T04:32:59.906Z,18.48
2023-03-06T04:36:59.951Z,18.51
2023-03-06T04:40:59.919Z,18.53
2023-03-06T04:44:59.913Z,18.56
2023-03-06T04:48:59.879Z,18.58
2023-03-06T04:52:59.901Z,18.61
2023-03-06T04:56:59.873Z,18.62
2023-03-06T05:00:59.871Z,18.62
2023-03-06T05:04:59.852Z,18.63
2023-03-06T05:08:59.787Z,18.65
2023-03-06T05:12:59.819Z,18.65
2023-03-06T05:16:59.869Z,18.66
2023-03-06T05:20:59.915Z,18.67
2023-03-06T05:24:59.881Z,18.67
2023-03-06T05:28:59.965Z,18.67
2023-03-06T05:33:00.001Z,18.68
2023-03-06T05:37:00.042Z,18.68
2023-03-06T05:41:00.069Z,18.67
2023-03-06T05:45:00.153Z,18.68
2023-03-06T05:49:00.206Z,18.67
2023-03-06T05:53:00.236Z,18.69
2023-03-06T05:57:00.230Z,18.70
2023-03-06T06:01:00.302Z,18.71
2023-03-06T06:05:00.376Z,18.70
2023-03-06T06:09:00.436Z,18.70
2023-03-06T06:13:00.524Z,18.70
2023-03-06T06:17:00.644Z,18.71
2023-03-06T06:21:00.683Z,18.71
2023-03-06T06:25:00.767Z,18.72
2023-03-06T06:29:00.859Z,18.72
2023-03-06T06:33:00.998Z,18.72
2023-03-06T06:37:01.090Z,18.72
2023-03-06T06:41:31.094Z,18.74
2023-03-06T06:45:02.168Z,18.73
2023-03-06T06:49:01.585Z,18.73
2023-03-06T06:53:01.163Z,18.74
2023-03-06T06:57:01.557Z,18.73
2023-03-06T07:01:01.343Z,18.74
2023-03-06T07:05:05.123Z,18.74
2023-03-06T07:09:01.530Z,18.74
2023-03-06T07:13:01.429Z,18.73
2023-03-06T07:17:01.388Z,18.73
2023-03-06T07:21:01.528Z,18.74
2023-03-06T07:25:01.265Z,18.73
2023-03-06T07:29:01.586Z,18.74
2023-03-06T07:33:01.201Z,18.75
2023-03-06T07:37:01.580Z,18.74
2023-03-06T07:41:01.156Z,18.75
2023-03-06T07:45:01.553Z,18.75
2023-03-06T07:49:01.210Z,18.75
2023-03-06T07:53:01.350Z,18.76
2023-03-06T07:57:01.573Z,18.76
2023-03-06T08:01:01.480Z,18.76
2023-03-06T08:05:01.555Z,18.70
2023-03-06T08:09:01.701Z,17.80
2023-03-06T08:13:02.146Z,17.11
2023-03-06T08:17:01.945Z,16.72
2023-03-06T08:21:02.076Z,17.19
2023-03-06T08:25:02.629Z,17.63
2023-03-06T08:29:02.369Z,17.90
2023-03-06T08:33:02.562Z,18.11
2023-03-06T08:37:02.699Z,18.25
2023-03-06T08:41:03.080Z,18.38
2023-03-06T08:45:03.088Z,18.49
2023-03-06T08:49:03.110Z,18.60
2023-03-06T08:53:02.980Z,18.79
2023-03-06T08:57:03.186Z,18.99
2023-03-06T09:01:03.749Z,19.17
2023-03-06T09:05:03.526Z,19.27
2023-03-06T09:09:03.567Z,19.36
2023-03-06T09:13:03.632Z,19.45
2023-03-06T09:17:03.648Z,19.51
2023-03-06T09:21:04.081Z,19.53
2023-03-06T09:25:03.631Z,19.57
2023-03-06T09:29:03.608Z,19.59
2023-03-06T09:33:03.605Z,19.64
2023-03-06T09:37:04.129Z,19.65
2023-03-06T09:41:03.711Z,19.59
2023-03-06T09:45:04.113Z,19.51
2023-03-06T09:49:04.101Z,19.45
2023-03-06T09:53:04.052Z,19.42
2023-03-06T09:57:04.625Z,19.45
2023-03-06T10:01:04.240Z,19.53
2023-03-06T10:05:04.331Z,19.59
2023-03-06T10:09:04.603Z,19.59
2023-03-06T10:13:04.193Z,19.62
2023-03-06T10:17:04.209Z,19.66
2023-03-06T10:21:17.277Z,19.64
2023-03-06T10:25:05.201Z,19.51
2023-03-06T10:29:04.608Z,19.28
2023-03-06T10:33:04.604Z,19.21
2023-03-06T10:37:05.129Z,19.18
2023-03-06T10:41:05.128Z,18.82
2023-03-06T10:45:05.130Z,18.15
2023-03-06T10:49:05.638Z,18.20
2023-03-06T10:53:05.426Z,18.38
2023-03-06T10:57:05.521Z,18.56
2023-03-06T11:01:05.654Z,18.70
2023-03-06T11:05:05.552Z,18.73
2023-03-06T11:09:05.561Z,18.73
2023-03-06T11:13:05.591Z,18.73
2023-03-06T11:17:05.604Z,18.78
2023-03-06T11:21:05.632Z,18.85
2023-03-06T11:25:05.642Z,18.92
2023-03-06T11:29:05.704Z,18.89
2023-03-06T11:33:05.632Z,18.82
2023-03-06T11:37:06.131Z,18.58
2023-03-06T11:41:05.758Z,18.32
2023-03-06T11:45:06.125Z,18.41
2023-03-06T11:49:05.990Z,18.61
2023-03-06T11:53:05.993Z,18.82
2023-03-06T11:57:06.025Z,18.98
2023-03-06T12:01:06.657Z,19.06
2023-03-06T12:05:06.482Z,19.19
2023-03-06T12:09:06.628Z,19.30
2023-03-06T12:13:06.730Z,19.36
2023-03-06T12:17:06.867Z,19.41
2023-03-06T12:21:06.912Z,19.48
2023-03-06T12:25:07.011Z,19.58
2023-03-06T12:29:07.161Z,19.62
2023-03-06T12:33:07.095Z,19.57
2023-03-06T12:37:07.183Z,19.55
2023-03-06T12:41:07.681Z,19.48
2023-03-06T12:45:07.330Z,19.38
2023-03-06T12:49:07.536Z,19.31
2023-03-06T12:53:07.767Z,19.32
2023-03-06T12:57:07.971Z,19.35
2023-03-06T13:01:08.214Z,19.37
2023-03-06T13:05:08.411Z,19.35
2023-03-06T13:09:08.411Z,19.34
2023-03-06T13:13:08.580Z,19.33
2023-03-06T13:17:08.802Z,19.32
2023-03-06T13:21:08.871Z,19.32
2023-03-06T13:25:09.235Z,19.31
2023-03-06T13:29:09.154Z,19.29
2023-03-06T13:33:09.371Z,19.28
2023-03-06T13:37:09.906Z,19.27
2023-03-06T13:41:09.624Z,19.26
2023-03-06T13:45:09.792Z,19.26
2023-03-06T13:49:09.931Z,19.26
2023-03-06T13:53:10.122Z,19.25
2023-03-06T13:57:10.297Z,19.24
2023-03-06T14:01:10.494Z,19.26
2023-03-06T14:05:10.651Z,19.25
2023-03-06T14:09:10.836Z,19.26
2023-03-06T14:13:11.025Z,19.25
2023-03-06T14:17:11.200Z,19.25
2023-03-06T14:21:11.362Z,19.24
2023-03-06T14:25:11.530Z,19.23
2023-03-06T14:29:11.686Z,19.24
2023-03-06T14:33:11.864Z,19.26
2023-03-06T14:37:12.079Z,19.25
2023-03-06T14:41:13.881Z,19.26
2023-03-06T14:45:12.380Z,19.29
2023-03-06T14:49:12.553Z,19.30
2023-03-06T14:53:12.683Z,19.31
2023-03-06T14:57:12.855Z,19.34
2023-03-06T15:01:12.985Z,19.35
2023-03-06T15:05:13.205Z,19.54
2023-03-06T15:09:13.349Z,19.53
2023-03-06T15:13:13.436Z,19.65
2023-03-06T15:17:13.702Z,20.14
2023-03-06T15:21:13.489Z,20.00
2023-03-06T15:25:13.563Z,19.78
2023-03-06T15:29:13.592Z,19.70
2023-03-06T15:33:13.708Z,19.82
2023-03-06T15:37:14.201Z,20.14
2023-03-06T15:41:13.784Z,20.25
2023-03-06T15:45:13.899Z,20.25
2023-03-06T15:49:13.804Z,19.98
2023-03-06T15:53:13.942Z,19.78
2023-03-06T15:57:14.018Z,19.65
2023-03-06T16:01:14.226Z,19.53
2023-03-06T16:05:14.297Z,19.45
2023-03-06T16:09:14.419Z,19.37
2023-03-06T16:13:14.756Z,19.31
2023-03-06T16:17:14.831Z,19.28
2023-03-06T16:21:14.953Z,19.25
2023-03-06T16:25:15.154Z,19.23
2023-03-06T16:29:15.523Z,19.22
2023-03-06T16:33:15.714Z,19.21
2023-03-06T16:37:15.796Z,19.22
2023-03-06T16:41:15.910Z,19.21
2023-03-06T16:45:16.131Z,19.21
2023-03-06T16:49:16.322Z,19.20
2023-03-06T16:53:16.872Z,19.20
2023-03-06T16:57:16.781Z,19.19
2023-03-06T17:01:16.816Z,19.20
2023-03-06T17:05:16.966Z,19.19
2023-03-06T17:09:17.255Z,19.18
2023-03-06T17:13:17.333Z,19.18
2023-03-06T17:17:17.616Z,19.18
2023-03-06T17:21:17.739Z,19.18
2023-03-06T17:25:17.895Z,19.17
2023-03-06T17:29:18.076Z,19.18
2023-03-06T17:33:18.292Z,19.17
2023-03-06T17:37:18.659Z,19.15
2023-03-06T17:41:18.784Z,19.16
2023-03-06T17:45:18.976Z,19.16
2023-03-06T17:49:19.119Z,19.14
2023-03-06T17:53:19.123Z,19.14
2023-03-06T17:57:19.079Z,19.12
2023-03-06T18:01:19.345Z,19.12
2023-03-06T18:05:19.032Z,19.12
2023-03-06T18:09:18.968Z,19.11
2023-03-06T18:13:19.001Z,19.10
2023-03-06T18:17:18.926Z,19.09
2023-03-06T18:21:19.123Z,19.09
2023-03-06T18:25:19.030Z,19.09
2023-03-06T18:29:18.795Z,19.07
2023-03-06T18:33:18.987Z,19.08
2023-03-06T18:37:19.067Z,19.06
2023-03-06T18:41:18.949Z,19.06
2023-03-06T18:45:18.905Z,19.05
2023-03-06T18:49:18.927Z,19.05
2023-03-06T18:53:18.870Z,19.04
2023-03-06T18:57:18.870Z,19.04
2023-03-06T19:01:18.918Z,19.04
2023-03-06T19:05:18.750Z,19.03
2023-03-06T19:09:18.897Z,19.03
2023-03-06T19:13:18.957Z,19.02
2023-03-06T19:17:18.930Z,19.02
2023-03-06T19:21:18.856Z,19.01
2023-03-06T19:25:18.834Z,19.01
2023-03-06T19:29:19.044Z,19.01
2023-03-06T19:33:27.814Z,19.00
2023-03-06T19:37:18.737Z,18.97
2023-03-06T19:41:18.665Z,18.96
2023-03-06T19:45:18.641Z,18.96
2023-03-06T19:49:18.624Z,18.97
2023-03-06T19:53:18.581Z,18.96
2023-03-06T19:57:18.573Z,18.96
2023-03-06T20:01:18.599Z,18.96
2023-03-06T20:05:18.488Z,18.97
2023-03-06T20:09:18.445Z,18.97
2023-03-06T20:13:18.417Z,18.97
2023-03-06T20:17:18.348Z,18.95
2023-03-06T20:21:18.313Z,18.95
2023-03-06T20:25:18.307Z,18.94
2023-03-06T20:29:18.380Z,18.94
2023-03-06T20:33:18.228Z,18.94
2023-03-06T20:37:18.203Z,18.94
2023-03-06T20:41:18.169Z,18.92
2023-03-06T20:45:18.120Z,18.93
2023-03-06T20:49:18.108Z,18.92
2023-03-06T20:53:18.027Z,18.91
2023-03-06T20:57:18.005Z,18.91
2023-03-06T21:01:18.020Z,18.91
2023-03-06T21:05:17.993Z,18.91
2023-03-06T21:09:17.985Z,18.90
2023-03-06T21:13:18.048Z,18.90
2023-03-06T21:17:18.088Z,18.90
2023-03-06T21:21:18.138Z,18.89
2023-03-06T21:25:18.197Z,18.90
2023-03-06T21:29:18.355Z,18.89
2023-03-06T21:33:18.244Z,18.89
2023-03-06T21:37:18.274Z,18.88
2023-03-06T21:41:18.303Z,18.89
2023-03-06T21:45:18.273Z,18.88
2023-03-06T21:49:18.272Z,18.88
2023-03-06T21:53:18.228Z,18.88
2023-03-06T21:57:18.223Z,18.88
2023-03-06T22:01:18.275Z,18.88
2023-03-06T22:05:18.194Z,18.87
2023-03-06T22:09:18.179Z,18.87
2023-03-06T22:13:18.185Z,18.87
2023-03-06T22:17:18.149Z,18.86
2023-03-06T22:21:18.177Z,18.86
2023-03-06T22:25:18.114Z,18.86
2023-03-06T22:29:18.128Z,18.86
2023-03-06T22:33:18.113Z,18.86
2023-03-06T22:37:18.106Z,18.85
2023-03-06T22:41:18.094Z,18.84
2023-03-06T22:45:18.084Z,18.85
2023-03-06T22:49:18.045Z,18.85
2023-03-06T22:53:18.034Z,18.85
2023-03-06T22:57:18.038Z,18.86
2023-03-06T23:01:17.992Z,18.85
2023-03-06T23:05:17.966Z,18.85
2023-03-06T23:09:18.005Z,18.85
2023-03-06T23:13:17.967Z,18.85
2023-03-06T23:17:17.967Z,18.85
2023-03-06T23:21:17.988Z,18.85
2023-03-06T23:25:17.934Z,18.85
2023-03-06T23:29:17.939Z,18.83
2023-03-06T23:33:17.902Z,18.84
2023-03-06T23:37:17.884Z,18.83
2023-03-06T23:41:17.885Z,18.83
2023-03-06T23:45:17.887Z,18.83
2023-03-06T23:49:17.869Z,18.83
2023-03-06T23:53:17.877Z,18.82
2023-03-06T23:57:17.855Z,18.82
